createdAt,value
2023-05-22T00:01:49.457Z,1.00
2023-05-22T00:04:22.151Z,1.00
2023-05-22T00:06:51.778Z,1.00
2023-05-22T00:09:21.090Z,1.00
2023-05-22T00:11:51.007Z,1.00
2023-05-22T00:14:22.454Z,1.00
2023-05-22T00:16:51.194Z,1.00
2023-05-22T00:19:23.219Z,1.00
2023-05-22T00:21:52.386Z,1.00
2023-05-22T00:24:22.743Z,1.00
2023-05-22T00:26:51.703Z,1.00
2023-05-22T00:29:20.909Z,1.00
2023-05-22T00:31:52.484Z,1.00
2023-05-22T00:34:22.990Z,1.00
2023-05-22T00:36:51.851Z,1.00
2023-05-22T00:39:20.849Z,1.00
2023-05-22T00:41:51.881Z,1.00
2023-05-22T00:44:24.760Z,1.00
2023-05-22T00:46:54.049Z,12.90
2023-05-22T00:49:24.493Z,1.00
2023-05-22T00:51:53.346Z,36.70
2023-05-22T00:54:22.620Z,1.00
2023-05-22T00:56:52.545Z,27.80
2023-05-22T00:59:21.496Z,76.80
2023-05-22T01:01:50.903Z,26.80
2023-05-22T01:04:25.401Z,44.60
2023-05-22T01:06:55.423Z,1.00
2023-05-22T01:09:24.353Z,1.00
2023-05-22T01:12:00.259Z,99.90
2023-05-22T01:14:42.402Z,99.90
2023-05-22T01:17:23.923Z,99.90
2023-05-22T01:20:14.683Z,99.90
2023-05-22T01:23:15.432Z,99.90
2023-05-22T01:26:20.808Z,99.90
2023-05-22T01:29:06.702Z,99.90
2023-05-22T01:31:41.155Z,99.90
2023-05-22T01:34:13.562Z,99.90
2023-05-22T01:36:46.273Z,99.90
2023-05-22T01:39:15.938Z,99.90
2023-05-22T01:41:44.781Z,99.90
2023-05-22T01:44:13.545Z,99.90
2023-05-22T01:46:43.911Z,99.90
2023-05-22T01:49:12.654Z,99.90
2023-05-22T01:51:53.590Z,99.90
2023-05-22T01:54:29.277Z,99.90
2023-05-22T01:57:03.224Z,1.00
2023-05-22T01:59:38.568Z,1.00
2023-05-22T02:02:12.299Z,1.00
2023-05-22T02:04:46.574Z,1.00
2023-05-22T02:07:19.088Z,1.00
2023-05-22T02:09:48.996Z,1.00
2023-05-22T02:12:18.118Z,1.00
2023-05-22T02:14:48.156Z,1.00
2023-05-22T02:17:19.334Z,1.00
2023-05-22T02:19:47.926Z,1.00
2023-05-22T02:22:17.081Z,1.00
2023-05-22T02:24:49.854Z,1.00
2023-05-22T02:27:18.918Z,99.90
2023-05-22T02:29:47.275Z,1.00
2023-05-22T02:32:18.018Z,1.00
2023-05-22T02:34:48.660Z,1.00
2023-05-22T02:37:18.324Z,1.00
2023-05-22T02:39:47.549Z,1.00
2023-05-22T02:42:16.597Z,1.00
2023-05-22T02:44:48.127Z,1.00
2023-05-22T02:47:19.768Z,1.00
2023-05-22T02:49:48.696Z,1.00
2023-05-22T02:52:19.816Z,1.00
2023-05-22T02:54:51.343Z,1.00
2023-05-22T02:57:22.403Z,1.00
2023-05-22T02:59:53.521Z,1.00
2023-05-22T03:02:28.817Z,1.00
2023-05-22T03:04:59.261Z,1.00
2023-05-22T03:07:31.896Z,1.00
2023-05-22T03:10:00.582Z,1.00
2023-05-22T03:12:29.158Z,1.00
2023-05-22T03:14:57.894Z,1.00
2023-05-22T03:17:44.388Z,2.20
2023-05-22T03:20:17.370Z,1.00
2023-05-22T03:22:46.913Z,75.10
2023-05-22T03:25:16.857Z,1.00
2023-05-22T03:27:46.594Z,64.50
2023-05-22T03:30:16.720Z,1.00
2023-05-22T03:32:56.496Z,1.00
2023-05-22T03:35:26.634Z,41.40
2023-05-22T03:37:56.452Z,1.00
2023-05-22T03:40:25.393Z,1.00
2023-05-22T03:42:54.089Z,1.00
2023-05-22T03:45:22.594Z,1.00
2023-05-22T03:47:51.629Z,66.10
2023-05-22T03:50:22.425Z,1.00
2023-05-22T03:52:50.754Z,1.00
2023-05-22T03:55:19.961Z,1.00
2023-05-22T03:57:48.601Z,1.00
2023-05-22T04:00:19.701Z,1.00
2023-05-22T04:02:52.077Z,1.00
2023-05-22T04:05:25.780Z,22.70
2023-05-22T04:07:55.687Z,99.90
2023-05-22T04:10:24.720Z,1.00
2023-05-22T04:12:53.761Z,1.00
2023-05-22T04:15:22.586Z,1.00
2023-05-22T04:17:54.019Z,1.00
2023-05-22T04:20:24.394Z,1.00
2023-05-22T04:22:54.912Z,1.00
2023-05-22T04:25:24.284Z,1.00
2023-05-22T04:27:55.869Z,1.00
2023-05-22T04:30:26.209Z,1.00
2023-05-22T04:32:56.623Z,1.00
2023-05-22T04:35:29.855Z,1.00
2023-05-22T04:37:58.637Z,1.00
2023-05-22T04:40:29.929Z,1.00
2023-05-22T04:43:00.098Z,1.00
2023-05-22T04:45:38.264Z,1.00
2023-05-22T04:48:08.396Z,1.00
2023-05-22T04:50:47.047Z,1.00
2023-05-22T04:53:19.380Z,1.00
2023-05-22T04:55:49.780Z,1.00
2023-05-22T04:58:22.421Z,99.90
2023-05-22T05:00:55.123Z,99.90
2023-05-22T05:03:24.275Z,1.00
2023-05-22T05:06:00.582Z,85.00
2023-05-22T05:08:29.128Z,1.00
2023-05-22T05:10:57.854Z,1.00
2023-05-22T05:13:27.520Z,1.00
2023-05-22T05:15:56.671Z,1.00
2023-05-22T05:18:25.799Z,1.00
2023-05-22T05:20:56.229Z,1.00
2023-05-22T05:23:25.585Z,1.00
2023-05-22T05:25:56.477Z,1.00
2023-05-22T05:28:26.284Z,1.00
2023-05-22T05:30:58.041Z,1.00
2023-05-22T05:33:46.509Z,1.00
2023-05-22T05:36:40.766Z,1.00
2023-05-22T05:39:09.858Z,1.00
2023-05-22T05:41:40.878Z,1.00
2023-05-22T05:44:11.859Z,1.00
2023-05-22T05:46:41.738Z,1.00
2023-05-22T05:49:13.760Z,1.00
2023-05-22T05:51:46.609Z,1.00
2023-05-22T05:54:17.824Z,1.00
2023-05-22T05:56:48.522Z,1.00
2023-05-22T05:59:18.033Z,1.00
2023-05-22T06:02:17.133Z,1.00
2023-05-22T06:04:48.865Z,1.00
2023-05-22T06:07:21.838Z,1.00
2023-05-22T06:09:54.191Z,1.00
2023-05-22T06:12:49.274Z,1.00
2023-05-22T06:15:18.912Z,1.00
2023-05-22T06:17:47.759Z,1.00
2023-05-22T06:20:17.197Z,1.00
2023-05-22T06:22:47.656Z,1.00
2023-05-22T06:25:16.745Z,1.00
2023-05-22T06:27:46.090Z,99.90
2023-05-22T06:30:22.442Z,99.90
2023-05-22T06:32:58.478Z,99.90
2023-05-22T06:35:27.493Z,99.90
2023-05-22T06:37:59.178Z,99.90
2023-05-22T06:40:28.864Z,99.90
2023-05-22T06:43:03.139Z,99.90
2023-05-22T06:45:55.121Z,99.90
2023-05-22T06:48:27.066Z,99.90
2023-05-22T06:51:06.995Z,99.90
2023-05-22T06:53:37.517Z,99.90
2023-05-22T06:56:10.200Z,99.90
2023-05-22T06:58:56.226Z,99.90
2023-05-22T07:01:33.593Z,99.90
2023-05-22T07:04:09.752Z,99.90
2023-05-22T07:06:49.007Z,99.90
2023-05-22T07:09:21.296Z,99.90
2023-05-22T07:11:51.318Z,99.90
2023-05-22T07:14:19.802Z,99.90
2023-05-22T07:16:48.959Z,99.90
2023-05-22T07:19:23.387Z,99.90
2023-05-22T07:21:52.352Z,99.90
2023-05-22T07:24:24.937Z,99.90
2023-05-22T07:26:54.512Z,99.90
2023-05-22T07:29:23.456Z,99.90
2023-05-22T07:31:55.063Z,99.90
2023-05-22T07:34:32.350Z,99.90
2023-05-22T07:37:01.566Z,99.90
2023-05-22T07:39:32.257Z,99.90
2023-05-22T07:42:02.017Z,99.90
2023-05-22T07:44:33.807Z,99.90
2023-05-22T07:47:02.189Z,99.90
2023-05-22T07:49:32.131Z,99.90
2023-05-22T07:52:01.540Z,99.90
2023-05-22T07:54:32.275Z,99.90
2023-05-22T07:57:03.377Z,99.90
2023-05-22T07:59:37.875Z,99.90
2023-05-22T08:02:08.914Z,99.90
2023-05-22T08:04:37.631Z,99.90
2023-05-22T08:07:06.682Z,99.90
2023-05-22T08:09:38.488Z,99.90
2023-05-22T08:12:09.735Z,99.90
2023-05-22T08:14:39.116Z,99.90
2023-05-22T08:17:07.726Z,99.90
2023-05-22T08:19:36.832Z,99.90
2023-05-22T08:22:05.402Z,99.90
2023-05-22T08:24:33.822Z,99.90
2023-05-22T08:27:04.558Z,99.90
2023-05-22T08:29:33.076Z,99.90
2023-05-22T08:32:05.149Z,99.90
2023-05-22T08:34:34.899Z,99.90
2023-05-22T08:37:05.089Z,99.90
2023-05-22T08:39:34.229Z,99.90
2023-05-22T08:42:04.627Z,99.90
2023-05-22T08:44:35.002Z,99.90
2023-05-22T08:47:04.600Z,99.90
2023-05-22T08:49:33.820Z,99.90
2023-05-22T08:52:09.247Z,99.90
2023-05-22T08:54:42.568Z,99.90
2023-05-22T08:57:13.673Z,99.90
2023-05-22T08:59:43.152Z,99.90
2023-05-22T09:02:17.218Z,99.90
2023-05-22T09:04:46.409Z,99.90
2023-05-22T09:07:15.439Z,99.90
2023-05-22T09:09:44.410Z,99.90
2023-05-22T09:12:15.471Z,99.90
2023-05-22T09:14:45.524Z,99.90
2023-05-22T09:17:17.833Z,99.90
2023-05-22T09:19:47.357Z,99.90
2023-05-22T09:22:17.318Z,99.90
2023-05-22T09:24:49.912Z,99.90
2023-05-22T09:27:24.657Z,99.90
2023-05-22T09:29:54.890Z,99.90
2023-05-22T09:32:23.952Z,99.90
2023-05-22T09:34:53.316Z,99.90
2023-05-22T09:37:24.700Z,99.90
2023-05-22T09:39:55.579Z,99.90
2023-05-22T09:42:27.510Z,99.90
2023-05-22T09:44:56.617Z,99.90
2023-05-22T09:47:25.639Z,99.90
2023-05-22T09:49:59.059Z,99.90
2023-05-22T09:52:30.049Z,99.90
2023-05-22T09:55:01.937Z,99.90
2023-05-22T09:57:35.089Z,99.90
2023-05-22T10:00:09.810Z,99.90
2023-05-22T10:02:44.247Z,99.90
2023-05-22T10:05:21.831Z,99.90
2023-05-22T10:07:52.138Z,99.90
2023-05-22T10:10:24.359Z,99.90
2023-05-22T10:12:58.868Z,99.90
2023-05-22T10:15:28.549Z,99.90
2023-05-22T10:17:58.075Z,99.90
2023-05-22T10:20:28.510Z,99.90
2023-05-22T10:22:58.418Z,99.90
2023-05-22T10:25:29.589Z,99.90
2023-05-22T10:28:03.699Z,99.90
2023-05-22T10:30:42.878Z,99.90
2023-05-22T10:33:44.514Z,99.90
2023-05-22T10:36:21.909Z,99.90
2023-05-22T10:39:07.551Z,99.90
2023-05-22T10:41:39.984Z,99.90
2023-05-22T10:44:10.705Z,99.90
2023-05-22T10:46:39.552Z,99.90
2023-05-22T10:49:08.889Z,99.90
2023-05-22T10:51:39.337Z,99.90
2023-05-22T10:54:08.738Z,99.90
2023-05-22T10:56:38.785Z,99.90
2023-05-22T10:59:10.431Z,99.90
2023-05-22T11:01:40.457Z,99.90
2023-05-22T11:04:19.221Z,99.90
2023-05-22T11:07:07.194Z,99.90
2023-05-22T11:09:42.979Z,99.90
2023-05-22T11:12:18.940Z,99.90
2023-05-22T11:15:07.669Z,99.90
2023-05-22T11:17:47.049Z,99.90
2023-05-22T11:20:23.138Z,99.90
2023-05-22T11:23:09.831Z,99.90
2023-05-22T11:25:42.701Z,99.90
2023-05-22T11:28:12.469Z,99.90
2023-05-22T11:30:44.913Z,99.90
2023-05-22T11:33:18.601Z,99.90
2023-05-22T11:35:57.553Z,99.90
2023-05-22T11:38:29.454Z,99.90
2023-05-22T11:40:59.825Z,99.90
2023-05-22T11:43:34.553Z,95.20
2023-05-22T11:46:07.999Z,98.60
2023-05-22T11:48:37.847Z,96.70
2023-05-22T11:51:07.042Z,93.60
2023-05-22T11:53:37.032Z,73.50
2023-05-22T11:56:07.179Z,77.70
2023-05-22T11:58:42.897Z,70.50
2023-05-22T12:01:14.077Z,91.90
2023-05-22T12:03:43.313Z,93.00
2023-05-22T12:06:13.438Z,70.20
2023-05-22T12:08:43.943Z,64.20
2023-05-22T12:11:14.046Z,63.20
2023-05-22T12:13:45.718Z,69.40
2023-05-22T12:16:23.177Z,62.10
2023-05-22T12:18:55.268Z,69.00
2023-05-22T12:21:24.046Z,54.50
2023-05-22T12:23:55.079Z,56.00
2023-05-22T12:26:23.798Z,48.70
2023-05-22T12:28:56.322Z,53.40
2023-05-22T12:31:26.868Z,50.70
2023-05-22T12:33:56.453Z,52.40
2023-05-22T12:36:35.098Z,52.10
2023-05-22T12:39:08.584Z,35.10
2023-05-22T12:41:36.960Z,16.90
2023-05-22T12:44:06.167Z,28.50
2023-05-22T12:46:39.218Z,21.40
2023-05-22T12:49:09.240Z,21.70
2023-05-22T12:51:40.658Z,16.80
2023-05-22T12:54:10.489Z,11.60
2023-05-22T12:56:39.565Z,4.90
2023-05-22T12:59:08.929Z,5.00
2023-05-22T13:01:39.044Z,1.00
2023-05-22T13:04:09.088Z,1.00
2023-05-22T13:06:39.920Z,1.00
2023-05-22T13:09:08.305Z,1.00
2023-05-22T13:11:37.741Z,1.00
2023-05-22T13:14:06.892Z,1.00
2023-05-22T13:16:36.159Z,1.00
2023-05-22T13:19:06.923Z,1.00
2023-05-22T13:21:35.986Z,1.00
2023-05-22T13:24:05.880Z,1.00
2023-05-22T13:26:35.007Z,1.00
2023-05-22T13:29:07.049Z,1.00
2023-05-22T13:31:38.282Z,1.00
2023-05-22T13:34:09.759Z,1.00
2023-05-22T13:36:38.686Z,1.00
2023-05-22T13:39:09.076Z,1.00
2023-05-22T13:41:38.434Z,1.00
2023-05-22T13:44:07.143Z,1.00
2023-05-22T13:46:36.707Z,1.00
2023-05-22T13:49:10.004Z,1.00
2023-05-22T13:51:39.247Z,1.00
2023-05-22T13:54:07.581Z,1.00
2023-05-22T13:56:36.147Z,1.00
2023-05-22T13:59:06.530Z,1.00
2023-05-22T14:01:36.746Z,1.00
2023-05-22T14:04:05.535Z,1.00
2023-05-22T14:06:36.359Z,1.00
2023-05-22T14:09:07.511Z,1.00
2023-05-22T14:11:37.398Z,1.00
2023-05-22T14:14:06.487Z,1.00
2023-05-22T14:16:36.166Z,1.00
2023-05-22T14:19:04.805Z,1.00
2023-05-22T14:21:34.903Z,1.00
2023-05-22T14:24:04.652Z,1.00
2023-05-22T14:26:33.525Z,1.00
2023-05-22T14:29:02.296Z,1.00
2023-05-22T14:31:31.302Z,99.90
2023-05-22T14:33:59.942Z,1.00
2023-05-22T14:36:28.777Z,1.00
2023-05-22T14:38:59.809Z,1.00
2023-05-22T14:41:28.581Z,1.00
2023-05-22T14:43:57.453Z,1.00
2023-05-22T14:46:26.617Z,1.00
2023-05-22T14:48:55.573Z,1.00
2023-05-22T14:51:24.194Z,1.00
2023-05-22T14:53:52.830Z,1.00
2023-05-22T14:56:23.496Z,1.00
2023-05-22T14:58:52.218Z,1.00
2023-05-22T15:01:21.240Z,1.00
2023-05-22T15:03:49.832Z,1.00
2023-05-22T15:06:18.406Z,1.00
2023-05-22T15:08:47.135Z,1.00
2023-05-22T15:11:15.895Z,1.00
2023-05-22T15:13:47.039Z,1.00
2023-05-22T15:16:16.342Z,1.00
2023-05-22T15:18:45.398Z,1.00
2023-05-22T15:21:14.126Z,1.00
2023-05-22T15:23:43.375Z,1.00
2023-05-22T15:26:12.565Z,1.00
2023-05-22T15:28:41.613Z,1.00
2023-05-22T15:31:13.157Z,1.00
2023-05-22T18:08:45.682Z,1.00
2023-05-22T18:11:14.834Z,1.00
2023-05-22T18:13:45.200Z,1.00
2023-05-22T18:16:14.225Z,1.00
2023-05-22T18:18:43.064Z,1.00
2023-05-22T18:21:11.967Z,1.00
2023-05-22T18:23:40.940Z,1.00
2023-05-22T18:26:10.053Z,1.00
2023-05-22T18:28:42.024Z,1.00
2023-05-22T18:31:12.714Z,1.00
2023-05-22T18:33:44.817Z,1.00
2023-05-22T18:36:14.888Z,1.00
2023-05-22T18:38:44.080Z,1.00
2023-05-22T18:41:19.224Z,1.00
2023-05-22T18:43:49.844Z,1.00
2023-05-22T18:46:21.796Z,1.00
2023-05-22T18:48:50.500Z,1.00
2023-05-22T18:51:20.319Z,1.00
2023-05-22T18:53:52.032Z,1.00
2023-05-22T18:56:20.661Z,1.00
2023-05-22T18:58:49.619Z,1.00
2023-05-22T19:01:20.075Z,1.00
2023-05-22T19:03:49.606Z,1.00
2023-05-22T19:06:20.232Z,1.00
2023-05-22T19:08:49.696Z,1.00
2023-05-22T19:11:18.389Z,1.00
2023-05-22T19:13:47.536Z,1.00
2023-05-22T19:16:16.603Z,1.00
2023-05-22T19:18:48.492Z,1.00
2023-05-22T19:21:17.314Z,1.00
2023-05-22T19:23:46.859Z,1.00
2023-05-22T19:26:15.588Z,1.00
2023-05-22T19:28:44.826Z,1.00
2023-05-22T19:31:13.578Z,1.00
2023-05-22T19:33:42.721Z,1.40
2023-05-22T19:36:13.511Z,11.10
2023-05-22T19:38:42.537Z,14.50
2023-05-22T19:41:14.722Z,30.30
2023-05-22T19:43:43.976Z,64.00
2023-05-22T19:46:12.854Z,99.20
2023-05-22T19:48:41.610Z,99.90
2023-05-22T19:51:11.020Z,99.90
2023-05-22T19:53:42.658Z,99.90
2023-05-22T19:56:11.858Z,99.90
2023-05-22T19:58:43.645Z,99.90
2023-05-22T20:01:13.449Z,99.90
2023-05-22T20:03:43.033Z,99.90
2023-05-22T20:06:13.399Z,99.90
2023-05-22T20:08:44.633Z,99.90
2023-05-22T20:11:13.274Z,99.90
2023-05-22T20:13:51.073Z,99.90
2023-05-22T20:16:20.216Z,99.90
2023-05-22T20:18:49.333Z,99.90
2023-05-22T20:21:18.979Z,99.90
2023-05-22T20:23:50.179Z,99.90
2023-05-22T20:26:19.936Z,99.90
2023-05-22T20:28:50.076Z,99.90
2023-05-22T20:31:19.749Z,99.90
2023-05-22T20:33:49.060Z,99.90
2023-05-22T20:36:18.840Z,99.90
2023-05-22T20:38:50.233Z,99.90
2023-05-22T20:41:19.653Z,99.90
2023-05-22T20:43:48.610Z,99.90
2023-05-22T20:46:17.503Z,99.90
2023-05-22T20:48:48.323Z,99.90
2023-05-22T20:51:18.781Z,99.90
2023-05-22T20:53:49.415Z,99.90
2023-05-22T20:56:18.679Z,99.90
2023-05-22T20:58:47.348Z,99.90
2023-05-22T21:01:16.166Z,99.90
2023-05-22T21:03:45.376Z,99.90
2023-05-22T21:06:14.489Z,99.90
2023-05-22T21:08:43.629Z,99.90
2023-05-22T21:11:13.872Z,99.90
2023-05-22T21:13:42.312Z,99.90
2023-05-22T21:16:13.842Z,1.00
2023-05-22T21:18:44.155Z,1.00
2023-05-22T21:21:14.129Z,1.00
2023-05-22T21:23:43.561Z,1.00
2023-05-22T21:26:14.027Z,1.00
2023-05-22T21:28:44.765Z,1.00
2023-05-22T21:31:13.416Z,1.00
2023-05-22T21:33:42.482Z,1.00
2023-05-22T21:36:11.575Z,1.00
2023-05-22T21:38:40.270Z,1.00
2023-05-22T21:41:09.062Z,1.00
2023-05-22T21:43:39.280Z,1.00
2023-05-22T21:46:08.173Z,1.00
2023-05-22T21:48:37.567Z,1.00
2023-05-22T21:51:07.210Z,1.00
2023-05-22T21:53:36.413Z,1.00
2023-05-22T21:56:05.364Z,1.00
2023-05-22T21:58:33.966Z,1.00
2023-05-22T22:01:04.575Z,1.00
2023-05-22T22:03:33.179Z,1.00
2023-05-22T22:06:02.090Z,1.00
2023-05-22T22:08:30.644Z,1.00
2023-05-22T22:10:59.747Z,1.00
2023-05-22T22:13:28.652Z,1.00
2023-05-22T22:15:59.613Z,1.00
2023-05-22T22:18:33.026Z,1.00
2023-05-22T22:21:02.568Z,1.00
2023-05-22T22:23:32.085Z,1.00
2023-05-22T22:26:00.461Z,1.00
2023-05-22T22:28:29.263Z,1.00
2023-05-22T22:30:57.583Z,1.00
2023-05-22T22:33:25.956Z,1.00
2023-05-22T22:35:56.464Z,1.00
2023-05-22T22:38:25.114Z,1.00
2023-05-22T22:40:54.130Z,1.00
2023-05-22T22:43:22.899Z,1.00
2023-05-22T22:45:51.412Z,1.00
2023-05-22T22:48:22.555Z,1.00
2023-05-22T22:50:52.787Z,1.00
2023-05-22T22:53:23.338Z,1.00
2023-05-22T22:55:57.541Z,1.00
2023-05-22T22:58:26.188Z,1.00
2023-05-22T23:00:55.261Z,1.00
2023-05-22T23:03:24.362Z,1.00
2023-05-22T23:05:52.964Z,1.00
2023-05-22T23:08:24.270Z,1.00
2023-05-22T23:10:54.598Z,1.00
2023-05-22T23:13:23.218Z,1.00
2023-05-22T23:15:52.241Z,1.00
2023-05-22T23:18:20.940Z,1.00
2023-05-22T23:20:49.652Z,1.00
2023-05-22T23:23:18.146Z,1.00
2023-05-22T23:25:48.480Z,1.00
2023-05-22T23:28:17.839Z,1.00
2023-05-22T23:30:46.867Z,1.00
2023-05-22T23:33:15.392Z,1.00
2023-05-22T23:35:44.048Z,1.00
2023-05-22T23:38:12.532Z,1.00
2023-05-22T23:40:41.321Z,1.00
2023-05-22T23:43:11.683Z,1.00
2023-05-22T23:45:40.940Z,1.00
2023-05-22T23:48:10.035Z,1.00
2023-05-22T23:50:38.694Z,1.00
2023-05-22T23:53:07.659Z,1.00
2023-05-22T23:55:36.281Z,1.00
2023-05-22T23:58:05.410Z,1.00
